sensor_id;sensor_type;location;lat;lon;timestamp;P1;durP1;ratioP1;P2;durP2;ratioP2
78402;SDS011;67687;43.508;1.504;2023-07-31T00:01:05;6.63;;;3.37;;
78402;SDS011;67687;43.508;1.504;2023-07-31T00:03:31;9.63;;;3.70;;
78402;SDS011;67687;43.508;1.504;2023-07-31T00:05:58;6.65;;;3.63;;
78402;SDS011;67687;43.508;1.504;2023-07-31T00:08:27;8.98;;;3.50;;
78402;SDS011;67687;43.508;1.504;2023-07-31T00:10:53;6.95;;;3.60;;
78402;SDS011;67687;43.508;1.504;2023-07-31T00:13:20;7.80;;;3.60;;
78402;SDS011;67687;43.508;1.504;2023-07-31T00:15:47;9.13;;;3.85;;
78402;SDS011;67687;43.508;1.504;2023-07-31T00:18:13;8.77;;;3.88;;
78402;SDS011;67687;43.508;1.504;2023-07-31T00:20:41;6.55;;;3.53;;
78402;SDS011;67687;43.508;1.504;2023-07-31T00:23:07;10.32;;;4.18;;
78402;SDS011;67687;43.508;1.504;2023-07-31T00:25:36;7.80;;;3.80;;
78402;SDS011;67687;43.508;1.504;2023-07-31T00:28:02;7.90;;;4.03;;
78402;SDS011;67687;43.508;1.504;2023-07-31T00:30:29;8.10;;;3.95;;
78402;SDS011;67687;43.508;1.504;2023-07-31T00:32:56;9.05;;;4.55;;
78402;SDS011;67687;43.508;1.504;2023-07-31T00:35:23;9.10;;;3.90;;
78402;SDS011;67687;43.508;1.504;2023-07-31T00:37:49;8.47;;;4.20;;
78402;SDS011;67687;43.508;1.504;2023-07-31T00:40:16;9.82;;;3.95;;
78402;SDS011;67687;43.508;1.504;2023-07-31T00:42:44;10.75;;;4.30;;
78402;SDS011;67687;43.508;1.504;2023-07-31T00:45:11;8.32;;;4.10;;
78402;SDS011;67687;43.508;1.504;2023-07-31T00:47:37;8.52;;;3.85;;
78402;SDS011;67687;43.508;1.504;2023-07-31T00:50:05;8.43;;;4.00;;
78402;SDS011;67687;43.508;1.504;2023-07-31T00:52:32;8.20;;;3.88;;
78402;SDS011;67687;43.508;1.504;2023-07-31T00:54:59;10.05;;;4.40;;
78402;SDS011;67687;43.508;1.504;2023-07-31T00:57:26;9.77;;;4.22;;
78402;SDS011;67687;43.508;1.504;2023-07-31T00:59:54;9.77;;;4.63;;
78402;SDS011;67687;43.508;1.504;2023-07-31T01:02:21;8.70;;;3.80;;
78402;SDS011;67687;43.508;1.504;2023-07-31T01:04:48;10.00;;;4.00;;
78402;SDS011;67687;43.508;1.504;2023-07-31T01:07:17;9.05;;;4.25;;
78402;SDS011;67687;43.508;1.504;2023-07-31T01:09:47;8.65;;;4.18;;
78402;SDS011;67687;43.508;1.504;2023-07-31T01:12:18;7.97;;;3.90;;
78402;SDS011;67687;43.508;1.504;2023-07-31T01:15:02;8.87;;;4.30;;
78402;SDS011;67687;43.508;1.504;2023-07-31T01:17:30;6.70;;;4.03;;
78402;SDS011;67687;43.508;1.504;2023-07-31T01:19:59;10.38;;;4.32;;
78402;SDS011;67687;43.508;1.504;2023-07-31T01:22:37;8.55;;;4.20;;
78402;SDS011;67687;43.508;1.504;2023-07-31T01:25:16;9.93;;;4.45;;
78402;SDS011;67687;43.508;1.504;2023-07-31T01:27:57;9.37;;;4.50;;
78402;SDS011;67687;43.508;1.504;2023-07-31T01:30:27;9.52;;;4.10;;
78402;SDS011;67687;43.508;1.504;2023-07-31T01:32:56;10.68;;;4.50;;
78402;SDS011;67687;43.508;1.504;2023-07-31T01:35:23;8.77;;;3.83;;
78402;SDS011;67687;43.508;1.504;2023-07-31T01:37:52;10.43;;;4.57;;
78402;SDS011;67687;43.508;1.504;2023-07-31T01:40:18;7.87;;;4.10;;
78402;SDS011;67687;43.508;1.504;2023-07-31T01:42:45;10.52;;;4.40;;
78402;SDS011;67687;43.508;1.504;2023-07-31T01:45:13;9.38;;;3.78;;
78402;SDS011;67687;43.508;1.504;2023-07-31T01:47:40;10.82;;;4.68;;
78402;SDS011;67687;43.508;1.504;2023-07-31T01:50:07;10.75;;;4.20;;
78402;SDS011;67687;43.508;1.504;2023-07-31T01:52:34;8.23;;;3.73;;
78402;SDS011;67687;43.508;1.504;2023-07-31T01:55:01;8.27;;;4.00;;
78402;SDS011;67687;43.508;1.504;2023-07-31T01:57:27;9.57;;;4.20;;
78402;SDS011;67687;43.508;1.504;2023-07-31T01:59:54;7.25;;;4.20;;
78402;SDS011;67687;43.508;1.504;2023-07-31T02:02:22;8.70;;;4.30;;
78402;SDS011;67687;43.508;1.504;2023-07-31T02:04:49;8.33;;;4.10;;
78402;SDS011;67687;43.508;1.504;2023-07-31T02:07:16;10.38;;;4.45;;
78402;SDS011;67687;43.508;1.504;2023-07-31T02:09:42;7.47;;;4.03;;
78402;SDS011;67687;43.508;1.504;2023-07-31T02:12:09;9.10;;;4.72;;
78402;SDS011;67687;43.508;1.504;2023-07-31T02:14:36;8.55;;;4.28;;
78402;SDS011;67687;43.508;1.504;2023-07-31T02:17:03;11.13;;;4.13;;
78402;SDS011;67687;43.508;1.504;2023-07-31T02:19:31;8.88;;;4.13;;
78402;SDS011;67687;43.508;1.504;2023-07-31T02:21:58;8.63;;;3.97;;
78402;SDS011;67687;43.508;1.504;2023-07-31T02:24:25;10.55;;;4.10;;
78402;SDS011;67687;43.508;1.504;2023-07-31T02:26:51;8.80;;;4.25;;
78402;SDS011;67687;43.508;1.504;2023-07-31T02:29:18;7.17;;;3.97;;
78402;SDS011;67687;43.508;1.504;2023-07-31T02:31:45;8.07;;;3.50;;
78402;SDS011;67687;43.508;1.504;2023-07-31T02:34:11;9.70;;;4.38;;
78402;SDS011;67687;43.508;1.504;2023-07-31T02:36:39;7.93;;;3.88;;
78402;SDS011;67687;43.508;1.504;2023-07-31T02:39:06;8.05;;;4.20;;
78402;SDS011;67687;43.508;1.504;2023-07-31T02:41:32;9.73;;;4.07;;
78402;SDS011;67687;43.508;1.504;2023-07-31T02:43:58;12.02;;;4.00;;
78402;SDS011;67687;43.508;1.504;2023-07-31T02:46:25;10.55;;;4.03;;
78402;SDS011;67687;43.508;1.504;2023-07-31T02:48:52;8.75;;;4.28;;
78402;SDS011;67687;43.508;1.504;2023-07-31T02:51:19;7.77;;;4.50;;
78402;SDS011;67687;43.508;1.504;2023-07-31T02:53:47;9.05;;;4.93;;
78402;SDS011;67687;43.508;1.504;2023-07-31T02:56:14;10.82;;;5.18;;
78402;SDS011;67687;43.508;1.504;2023-07-31T02:58:41;10.95;;;5.30;;
78402;SDS011;67687;43.508;1.504;2023-07-31T03:01:08;11.60;;;6.10;;
78402;SDS011;67687;43.508;1.504;2023-07-31T03:03:34;12.13;;;6.67;;
78402;SDS011;67687;43.508;1.504;2023-07-31T03:06:01;14.77;;;6.70;;
78402;SDS011;67687;43.508;1.504;2023-07-31T03:08:28;13.82;;;7.70;;
78402;SDS011;67687;43.508;1.504;2023-07-31T03:10:56;14.63;;;8.13;;
78402;SDS011;67687;43.508;1.504;2023-07-31T03:13:23;12.27;;;7.47;;
78402;SDS011;67687;43.508;1.504;2023-07-31T03:15:49;14.47;;;8.10;;
78402;SDS011;67687;43.508;1.504;2023-07-31T03:18:16;15.40;;;8.10;;
78402;SDS011;67687;43.508;1.504;2023-07-31T03:20:43;13.90;;;7.25;;
78402;SDS011;67687;43.508;1.504;2023-07-31T03:23:10;14.27;;;8.20;;
78402;SDS011;67687;43.508;1.504;2023-07-31T03:25:37;12.48;;;6.90;;
78402;SDS011;67687;43.508;1.504;2023-07-31T03:28:05;11.43;;;6.17;;
78402;SDS011;67687;43.508;1.504;2023-07-31T03:30:32;11.20;;;5.40;;
78402;SDS011;67687;43.508;1.504;2023-07-31T03:32:58;10.90;;;5.22;;
78402;SDS011;67687;43.508;1.504;2023-07-31T03:35:25;8.38;;;4.47;;
78402;SDS011;67687;43.508;1.504;2023-07-31T03:37:52;10.30;;;4.65;;
78402;SDS011;67687;43.508;1.504;2023-07-31T03:40:18;10.77;;;4.50;;
78402;SDS011;67687;43.508;1.504;2023-07-31T03:42:45;8.73;;;3.90;;
78402;SDS011;67687;43.508;1.504;2023-07-31T03:45:13;7.47;;;3.95;;
78402;SDS011;67687;43.508;1.504;2023-07-31T03:47:40;9.07;;;4.35;;
78402;SDS011;67687;43.508;1.504;2023-07-31T03:50:07;10.05;;;4.40;;
78402;SDS011;67687;43.508;1.504;2023-07-31T03:52:34;8.20;;;3.70;;
78402;SDS011;67687;43.508;1.504;2023-07-31T03:55:00;7.72;;;3.92;;
78402;SDS011;67687;43.508;1.504;2023-07-31T03:57:27;7.75;;;3.42;;
78402;SDS011;67687;43.508;1.504;2023-07-31T03:59:54;10.20;;;3.72;;
78402;SDS011;67687;43.508;1.504;2023-07-31T04:02:22;11.15;;;4.32;;
78402;SDS011;67687;43.508;1.504;2023-07-31T04:04:48;8.90;;;3.77;;
78402;SDS011;67687;43.508;1.504;2023-07-31T04:07:15;9.10;;;3.90;;
78402;SDS011;67687;43.508;1.504;2023-07-31T04:09:42;7.18;;;3.85;;
78402;SDS011;67687;43.508;1.504;2023-07-31T04:12:09;6.32;;;3.53;;
78402;SDS011;67687;43.508;1.504;2023-07-31T04:14:35;7.45;;;3.83;;
78402;SDS011;67687;43.508;1.504;2023-07-31T04:17:02;7.73;;;3.87;;
78402;SDS011;67687;43.508;1.504;2023-07-31T04:19:30;8.48;;;4.10;;
78402;SDS011;67687;43.508;1.504;2023-07-31T04:21:57;9.05;;;3.88;;
78402;SDS011;67687;43.508;1.504;2023-07-31T04:24:24;6.85;;;3.70;;
78402;SDS011;67687;43.508;1.504;2023-07-31T04:26:51;8.40;;;3.92;;
78402;SDS011;67687;43.508;1.504;2023-07-31T04:29:18;8.67;;;4.00;;
78402;SDS011;67687;43.508;1.504;2023-07-31T04:31:45;7.68;;;3.70;;
78402;SDS011;67687;43.508;1.504;2023-07-31T04:34:11;8.68;;;3.80;;
78402;SDS011;67687;43.508;1.504;2023-07-31T04:36:40;8.10;;;3.88;;
78402;SDS011;67687;43.508;1.504;2023-07-31T04:39:06;9.68;;;3.97;;
78402;SDS011;67687;43.508;1.504;2023-07-31T04:41:33;8.30;;;3.77;;
78402;SDS011;67687;43.508;1.504;2023-07-31T04:44:00;9.50;;;3.70;;
78402;SDS011;67687;43.508;1.504;2023-07-31T04:46:28;9.02;;;3.72;;
78402;SDS011;67687;43.508;1.504;2023-07-31T04:48:55;10.38;;;3.90;;
78402;SDS011;67687;43.508;1.504;2023-07-31T04:51:22;11.57;;;4.25;;
78402;SDS011;67687;43.508;1.504;2023-07-31T04:53:51;12.33;;;3.73;;
78402;SDS011;67687;43.508;1.504;2023-07-31T04:56:18;9.05;;;3.78;;
78402;SDS011;67687;43.508;1.504;2023-07-31T04:58:45;8.13;;;4.05;;
78402;SDS011;67687;43.508;1.504;2023-07-31T05:01:11;10.57;;;3.80;;
78402;SDS011;67687;43.508;1.504;2023-07-31T05:03:38;8.65;;;4.15;;
78402;SDS011;67687;43.508;1.504;2023-07-31T05:06:05;10.70;;;3.60;;
78402;SDS011;67687;43.508;1.504;2023-07-31T05:08:31;7.53;;;3.70;;
78402;SDS011;67687;43.508;1.504;2023-07-31T05:11:00;8.23;;;3.42;;
78402;SDS011;67687;43.508;1.504;2023-07-31T05:13:26;7.32;;;3.72;;
78402;SDS011;67687;43.508;1.504;2023-07-31T05:15:53;13.60;;;4.40;;
78402;SDS011;67687;43.508;1.504;2023-07-31T05:18:20;9.53;;;4.63;;
78402;SDS011;67687;43.508;1.504;2023-07-31T05:20:46;9.18;;;4.18;;
78402;SDS011;67687;43.508;1.504;2023-07-31T05:23:13;9.70;;;4.70;;
78402;SDS011;67687;43.508;1.504;2023-07-31T05:25:40;6.93;;;3.85;;
78402;SDS011;67687;43.508;1.504;2023-07-31T05:28:08;8.45;;;4.50;;
78402;SDS011;67687;43.508;1.504;2023-07-31T05:30:34;9.33;;;5.07;;
78402;SDS011;67687;43.508;1.504;2023-07-31T05:33:01;8.85;;;4.93;;
78402;SDS011;67687;43.508;1.504;2023-07-31T05:35:28;7.78;;;5.30;;
78402;SDS011;67687;43.508;1.504;2023-07-31T05:37:54;8.63;;;3.83;;
78402;SDS011;67687;43.508;1.504;2023-07-31T05:40:21;8.05;;;4.70;;
78402;SDS011;67687;43.508;1.504;2023-07-31T05:42:48;9.60;;;7.27;;
78402;SDS011;67687;43.508;1.504;2023-07-31T05:45:16;13.10;;;7.40;;
78402;SDS011;67687;43.508;1.504;2023-07-31T05:47:43;9.68;;;6.72;;
78402;SDS011;67687;43.508;1.504;2023-07-31T05:50:10;9.98;;;6.13;;
78402;SDS011;67687;43.508;1.504;2023-07-31T05:52:36;11.30;;;7.28;;
78402;SDS011;67687;43.508;1.504;2023-07-31T05:55:03;9.50;;;6.43;;
78402;SDS011;67687;43.508;1.504;2023-07-31T05:57:30;9.00;;;7.60;;
78402;SDS011;67687;43.508;1.504;2023-07-31T05:59:57;9.55;;;7.80;;
78402;SDS011;67687;43.508;1.504;2023-07-31T06:02:25;9.13;;;7.07;;
78402;SDS011;67687;43.508;1.504;2023-07-31T06:04:52;10.60;;;7.13;;
78402;SDS011;67687;43.508;1.504;2023-07-31T06:07:18;8.70;;;7.17;;
78402;SDS011;67687;43.508;1.504;2023-07-31T06:09:45;10.10;;;6.45;;
78402;SDS011;67687;43.508;1.504;2023-07-31T06:12:12;9.90;;;7.28;;
78402;SDS011;67687;43.508;1.504;2023-07-31T06:14:39;9.15;;;6.63;;
78402;SDS011;67687;43.508;1.504;2023-07-31T06:17:06;10.82;;;7.70;;
78402;SDS011;67687;43.508;1.504;2023-07-31T06:19:34;8.07;;;6.10;;
78402;SDS011;67687;43.508;1.504;2023-07-31T06:22:00;11.10;;;6.45;;
78402;SDS011;67687;43.508;1.504;2023-07-31T06:24:27;9.68;;;5.72;;
78402;SDS011;67687;43.508;1.504;2023-07-31T06:26:54;9.25;;;5.00;;
78402;SDS011;67687;43.508;1.504;2023-07-31T06:29:22;11.02;;;5.13;;
78402;SDS011;67687;43.508;1.504;2023-07-31T06:31:49;10.83;;;5.10;;
78402;SDS011;67687;43.508;1.504;2023-07-31T06:34:16;9.93;;;4.50;;
78402;SDS011;67687;43.508;1.504;2023-07-31T06:36:44;9.82;;;3.88;;
78402;SDS011;67687;43.508;1.504;2023-07-31T06:39:11;7.30;;;3.05;;
78402;SDS011;67687;43.508;1.504;2023-07-31T06:41:38;8.68;;;3.83;;
78402;SDS011;67687;43.508;1.504;2023-07-31T06:44:05;8.53;;;3.30;;
78402;SDS011;67687;43.508;1.504;2023-07-31T06:46:32;8.77;;;3.38;;
78402;SDS011;67687;43.508;1.504;2023-07-31T06:48:58;7.25;;;3.42;;
78402;SDS011;67687;43.508;1.504;2023-07-31T06:51:25;10.82;;;3.60;;
78402;SDS011;67687;43.508;1.504;2023-07-31T06:53:53;9.88;;;3.42;;
78402;SDS011;67687;43.508;1.504;2023-07-31T06:56:20;9.80;;;4.20;;
78402;SDS011;67687;43.508;1.504;2023-07-31T06:58:47;8.55;;;3.40;;
78402;SDS011;67687;43.508;1.504;2023-07-31T07:01:14;7.93;;;3.30;;
78402;SDS011;67687;43.508;1.504;2023-07-31T07:03:40;7.57;;;3.05;;
78402;SDS011;67687;43.508;1.504;2023-07-31T07:06:07;9.15;;;3.20;;
78402;SDS011;67687;43.508;1.504;2023-07-31T07:08:34;11.43;;;3.43;;
78402;SDS011;67687;43.508;1.504;2023-07-31T07:11:02;7.95;;;3.00;;
78402;SDS011;67687;43.508;1.504;2023-07-31T07:13:29;7.90;;;3.20;;
78402;SDS011;67687;43.508;1.504;2023-07-31T07:15:55;9.13;;;3.35;;
78402;SDS011;67687;43.508;1.504;2023-07-31T07:18:22;8.80;;;3.45;;
78402;SDS011;67687;43.508;1.504;2023-07-31T07:20:49;8.47;;;3.80;;
78402;SDS011;67687;43.508;1.504;2023-07-31T07:23:17;9.15;;;3.50;;
78402;SDS011;67687;43.508;1.504;2023-07-31T07:25:44;8.02;;;2.83;;
78402;SDS011;67687;43.508;1.504;2023-07-31T07:28:13;8.90;;;3.63;;
78402;SDS011;67687;43.508;1.504;2023-07-31T07:30:40;8.90;;;3.13;;
78402;SDS011;67687;43.508;1.504;2023-07-31T07:33:07;9.90;;;3.40;;
78402;SDS011;67687;43.508;1.504;2023-07-31T07:35:34;9.95;;;3.10;;
78402;SDS011;67687;43.508;1.504;2023-07-31T07:38:01;9.15;;;3.75;;
78402;SDS011;67687;43.508;1.504;2023-07-31T07:40:28;8.82;;;3.53;;
78402;SDS011;67687;43.508;1.504;2023-07-31T07:42:55;11.52;;;3.28;;
78402;SDS011;67687;43.508;1.504;2023-07-31T07:45:23;13.23;;;3.80;;
78402;SDS011;67687;43.508;1.504;2023-07-31T07:47:49;9.65;;;3.53;;
78402;SDS011;67687;43.508;1.504;2023-07-31T07:50:16;7.72;;;2.88;;
78402;SDS011;67687;43.508;1.504;2023-07-31T07:52:42;10.55;;;3.30;;
78402;SDS011;67687;43.508;1.504;2023-07-31T07:55:09;7.80;;;3.20;;
78402;SDS011;67687;43.508;1.504;2023-07-31T07:57:36;8.90;;;2.70;;
78402;SDS011;67687;43.508;1.504;2023-07-31T08:00:03;10.70;;;3.17;;
78402;SDS011;67687;43.508;1.504;2023-07-31T08:02:32;8.18;;;3.38;;
78402;SDS011;67687;43.508;1.504;2023-07-31T08:04:58;8.02;;;3.17;;
78402;SDS011;67687;43.508;1.504;2023-07-31T08:07:25;10.80;;;3.63;;
78402;SDS011;67687;43.508;1.504;2023-07-31T08:09:52;10.43;;;3.47;;
78402;SDS011;67687;43.508;1.504;2023-07-31T08:12:18;8.80;;;2.80;;
78402;SDS011;67687;43.508;1.504;2023-07-31T08:14:45;7.82;;;3.10;;
78402;SDS011;67687;43.508;1.504;2023-07-31T08:17:12;7.63;;;3.33;;
78402;SDS011;67687;43.508;1.504;2023-07-31T08:19:40;9.13;;;3.22;;
78402;SDS011;67687;43.508;1.504;2023-07-31T08:22:06;8.07;;;3.23;;
78402;SDS011;67687;43.508;1.504;2023-07-31T08:24:33;7.45;;;2.90;;
78402;SDS011;67687;43.508;1.504;2023-07-31T08:27:00;6.68;;;3.00;;
78402;SDS011;67687;43.508;1.504;2023-07-31T08:29:27;7.65;;;3.33;;
78402;SDS011;67687;43.508;1.504;2023-07-31T08:31:53;8.45;;;2.80;;
78402;SDS011;67687;43.508;1.504;2023-07-31T08:34:20;7.77;;;3.37;;
78402;SDS011;67687;43.508;1.504;2023-07-31T08:36:48;7.97;;;2.95;;
78402;SDS011;67687;43.508;1.504;2023-07-31T08:39:15;8.88;;;2.95;;
78402;SDS011;67687;43.508;1.504;2023-07-31T08:41:42;8.52;;;3.20;;
78402;SDS011;67687;43.508;1.504;2023-07-31T08:44:09;9.95;;;3.75;;
78402;SDS011;67687;43.508;1.504;2023-07-31T08:46:37;7.83;;;3.00;;
78402;SDS011;67687;43.508;1.504;2023-07-31T08:49:04;6.88;;;3.40;;
78402;SDS011;67687;43.508;1.504;2023-07-31T08:51:33;7.68;;;3.25;;
78402;SDS011;67687;43.508;1.504;2023-07-31T08:54:01;8.50;;;3.92;;
78402;SDS011;67687;43.508;1.504;2023-07-31T08:56:29;7.95;;;3.30;;
78402;SDS011;67687;43.508;1.504;2023-07-31T08:58:58;7.77;;;3.00;;
78402;SDS011;67687;43.508;1.504;2023-07-31T09:01:26;7.18;;;3.13;;
78402;SDS011;67687;43.508;1.504;2023-07-31T09:03:54;8.40;;;3.30;;
78402;SDS011;67687;43.508;1.504;2023-07-31T09:06:22;8.25;;;3.20;;
78402;SDS011;67687;43.508;1.504;2023-07-31T09:08:49;8.48;;;3.30;;
78402;SDS011;67687;43.508;1.504;2023-07-31T09:11:18;8.33;;;3.37;;
78402;SDS011;67687;43.508;1.504;2023-07-31T09:13:45;8.27;;;3.08;;
78402;SDS011;67687;43.508;1.504;2023-07-31T09:16:12;6.57;;;2.50;;
78402;SDS011;67687;43.508;1.504;2023-07-31T09:18:52;6.10;;;2.78;;
78402;SDS011;67687;43.508;1.504;2023-07-31T09:21:21;6.35;;;2.75;;
78402;SDS011;67687;43.508;1.504;2023-07-31T09:23:49;8.50;;;3.00;;
78402;SDS011;67687;43.508;1.504;2023-07-31T09:26:32;6.97;;;2.60;;
78402;SDS011;67687;43.508;1.504;2023-07-31T09:29:00;6.43;;;2.58;;
78402;SDS011;67687;43.508;1.504;2023-07-31T09:31:33;5.40;;;2.85;;
78402;SDS011;67687;43.508;1.504;2023-07-31T09:34:05;7.18;;;2.92;;
78402;SDS011;67687;43.508;1.504;2023-07-31T09:36:31;6.90;;;3.00;;
78402;SDS011;67687;43.508;1.504;2023-07-31T09:39:01;6.00;;;2.65;;
78402;SDS011;67687;43.508;1.504;2023-07-31T09:41:28;7.35;;;2.72;;
78402;SDS011;67687;43.508;1.504;2023-07-31T09:43:57;6.65;;;3.03;;
78402;SDS011;67687;43.508;1.504;2023-07-31T09:46:23;6.75;;;2.47;;
78402;SDS011;67687;43.508;1.504;2023-07-31T09:48:53;5.53;;;2.57;;
78402;SDS011;67687;43.508;1.504;2023-07-31T09:51:30;6.00;;;2.72;;
78402;SDS011;67687;43.508;1.504;2023-07-31T09:53:57;6.47;;;2.40;;
78402;SDS011;67687;43.508;1.504;2023-07-31T09:56:24;7.88;;;2.65;;
78402;SDS011;67687;43.508;1.504;2023-07-31T09:58:51;6.10;;;2.50;;
78402;SDS011;67687;43.508;1.504;2023-07-31T10:01:20;5.17;;;2.33;;
78402;SDS011;67687;43.508;1.504;2023-07-31T10:03:47;5.30;;;2.22;;
78402;SDS011;67687;43.508;1.504;2023-07-31T10:06:13;5.68;;;2.38;;
78402;SDS011;67687;43.508;1.504;2023-07-31T10:08:41;5.43;;;2.38;;
78402;SDS011;67687;43.508;1.504;2023-07-31T10:11:09;6.50;;;2.50;;
78402;SDS011;67687;43.508;1.504;2023-07-31T10:13:36;7.73;;;2.50;;
78402;SDS011;67687;43.508;1.504;2023-07-31T10:16:03;6.47;;;2.40;;
78402;SDS011;67687;43.508;1.504;2023-07-31T10:18:32;4.63;;;2.25;;
78402;SDS011;67687;43.508;1.504;2023-07-31T10:20:59;6.47;;;2.30;;
78402;SDS011;67687;43.508;1.504;2023-07-31T10:23:25;5.50;;;2.22;;
78402;SDS011;67687;43.508;1.504;2023-07-31T10:25:53;5.13;;;2.70;;
78402;SDS011;67687;43.508;1.504;2023-07-31T10:28:20;6.20;;;2.10;;
78402;SDS011;67687;43.508;1.504;2023-07-31T10:30:47;5.93;;;2.25;;
78402;SDS011;67687;43.508;1.504;2023-07-31T10:33:15;5.88;;;2.20;;
78402;SDS011;67687;43.508;1.504;2023-07-31T10:35:44;7.03;;;2.60;;
78402;SDS011;67687;43.508;1.504;2023-07-31T10:38:11;6.17;;;2.30;;
78402;SDS011;67687;43.508;1.504;2023-07-31T10:40:38;4.45;;;2.08;;
78402;SDS011;67687;43.508;1.504;2023-07-31T10:43:05;5.22;;;2.38;;
78402;SDS011;67687;43.508;1.504;2023-07-31T10:45:34;5.57;;;2.40;;
78402;SDS011;67687;43.508;1.504;2023-07-31T10:48:02;6.55;;;2.28;;
78402;SDS011;67687;43.508;1.504;2023-07-31T10:50:30;4.37;;;2.03;;
78402;SDS011;67687;43.508;1.504;2023-07-31T10:53:00;5.68;;;2.30;;
78402;SDS011;67687;43.508;1.504;2023-07-31T10:55:28;5.82;;;2.63;;
78402;SDS011;67687;43.508;1.504;2023-07-31T10:57:56;6.43;;;2.50;;
78402;SDS011;67687;43.508;1.504;2023-07-31T11:00:25;4.30;;;2.28;;
78402;SDS011;67687;43.508;1.504;2023-07-31T11:03:00;4.40;;;2.10;;
78402;SDS011;67687;43.508;1.504;2023-07-31T11:08:12;4.65;;;2.10;;
78402;SDS011;67687;43.508;1.504;2023-07-31T11:10:40;5.10;;;2.50;;
78402;SDS011;67687;43.508;1.504;2023-07-31T11:13:06;5.65;;;2.53;;
78402;SDS011;67687;43.508;1.504;2023-07-31T11:15:33;5.03;;;2.57;;
78402;SDS011;67687;43.508;1.504;2023-07-31T11:18:00;5.45;;;2.53;;
78402;SDS011;67687;43.508;1.504;2023-07-31T11:20:29;5.50;;;2.45;;
78402;SDS011;67687;43.508;1.504;2023-07-31T11:22:57;6.18;;;2.78;;
78402;SDS011;67687;43.508;1.504;2023-07-31T11:25:26;5.72;;;2.50;;
78402;SDS011;67687;43.508;1.504;2023-07-31T11:27:55;5.67;;;2.60;;
78402;SDS011;67687;43.508;1.504;2023-07-31T11:30:22;5.55;;;2.50;;
78402;SDS011;67687;43.508;1.504;2023-07-31T11:32:49;5.60;;;2.75;;
78402;SDS011;67687;43.508;1.504;2023-07-31T11:35:16;7.40;;;2.78;;
78402;SDS011;67687;43.508;1.504;2023-07-31T11:37:43;6.63;;;2.50;;
78402;SDS011;67687;43.508;1.504;2023-07-31T11:40:10;6.53;;;2.53;;
78402;SDS011;67687;43.508;1.504;2023-07-31T11:42:39;6.60;;;2.85;;
78402;SDS011;67687;43.508;1.504;2023-07-31T11:45:06;5.90;;;2.38;;
78402;SDS011;67687;43.508;1.504;2023-07-31T11:47:35;5.80;;;2.55;;
78402;SDS011;67687;43.508;1.504;2023-07-31T11:50:02;4.80;;;2.60;;
78402;SDS011;67687;43.508;1.504;2023-07-31T11:52:30;6.97;;;2.60;;
78402;SDS011;67687;43.508;1.504;2023-07-31T11:55:00;7.15;;;2.60;;
78402;SDS011;67687;43.508;1.504;2023-07-31T11:57:27;5.35;;;2.63;;
78402;SDS011;67687;43.508;1.504;2023-07-31T11:59:56;5.32;;;2.53;;
78402;SDS011;67687;43.508;1.504;2023-07-31T12:02:23;5.60;;;2.53;;
78402;SDS011;67687;43.508;1.504;2023-07-31T12:04:50;5.20;;;2.60;;
78402;SDS011;67687;43.508;1.504;2023-07-31T12:07:17;7.05;;;2.58;;
78402;SDS011;67687;43.508;1.504;2023-07-31T12:09:53;5.70;;;2.67;;
78402;SDS011;67687;43.508;1.504;2023-07-31T12:12:20;5.25;;;2.50;;
78402;SDS011;67687;43.508;1.504;2023-07-31T12:14:47;5.57;;;2.20;;
78402;SDS011;67687;43.508;1.504;2023-07-31T12:17:17;5.60;;;2.80;;
78402;SDS011;67687;43.508;1.504;2023-07-31T12:19:45;5.55;;;2.65;;
78402;SDS011;67687;43.508;1.504;2023-07-31T12:22:12;6.55;;;2.53;;
78402;SDS011;67687;43.508;1.504;2023-07-31T12:24:39;6.00;;;2.50;;
78402;SDS011;67687;43.508;1.504;2023-07-31T12:27:10;5.82;;;2.60;;
78402;SDS011;67687;43.508;1.504;2023-07-31T12:29:37;5.40;;;2.40;;
78402;SDS011;67687;43.508;1.504;2023-07-31T12:32:04;5.50;;;2.65;;
78402;SDS011;67687;43.508;1.504;2023-07-31T12:34:35;6.10;;;2.50;;
78402;SDS011;67687;43.508;1.504;2023-07-31T12:37:08;6.38;;;2.72;;
78402;SDS011;67687;43.508;1.504;2023-07-31T12:39:35;5.78;;;2.40;;
78402;SDS011;67687;43.508;1.504;2023-07-31T12:42:01;5.17;;;2.70;;
78402;SDS011;67687;43.508;1.504;2023-07-31T12:44:28;7.40;;;2.83;;
78402;SDS011;67687;43.508;1.504;2023-07-31T12:46:55;5.30;;;2.22;;
78402;SDS011;67687;43.508;1.504;2023-07-31T12:49:22;6.18;;;2.70;;
78402;SDS011;67687;43.508;1.504;2023-07-31T12:51:50;4.93;;;2.85;;
78402;SDS011;67687;43.508;1.504;2023-07-31T12:54:17;6.83;;;2.83;;
78402;SDS011;67687;43.508;1.504;2023-07-31T12:56:43;6.55;;;2.70;;
78402;SDS011;67687;43.508;1.504;2023-07-31T12:59:10;6.38;;;2.58;;
78402;SDS011;67687;43.508;1.504;2023-07-31T13:01:37;5.97;;;2.95;;
78402;SDS011;67687;43.508;1.504;2023-07-31T13:04:04;6.85;;;2.67;;
78402;SDS011;67687;43.508;1.504;2023-07-31T13:06:30;4.87;;;2.53;;
78402;SDS011;67687;43.508;1.504;2023-07-31T13:08:58;7.10;;;2.75;;
78402;SDS011;67687;43.508;1.504;2023-07-31T13:11:25;6.65;;;2.83;;
78402;SDS011;67687;43.508;1.504;2023-07-31T13:13:52;6.28;;;2.75;;
78402;SDS011;67687;43.508;1.504;2023-07-31T13:16:18;6.10;;;2.80;;
78402;SDS011;67687;43.508;1.504;2023-07-31T13:18:45;5.73;;;2.93;;
78402;SDS011;67687;43.508;1.504;2023-07-31T13:21:12;6.10;;;2.72;;
78402;SDS011;67687;43.508;1.504;2023-07-31T13:23:39;5.78;;;2.70;;
78402;SDS011;67687;43.508;1.504;2023-07-31T13:26:07;5.28;;;2.80;;
78402;SDS011;67687;43.508;1.504;2023-07-31T13:28:33;7.75;;;3.08;;
78402;SDS011;67687;43.508;1.504;2023-07-31T13:31:00;5.33;;;2.60;;
78402;SDS011;67687;43.508;1.504;2023-07-31T13:33:27;6.05;;;2.60;;
78402;SDS011;67687;43.508;1.504;2023-07-31T13:35:55;6.53;;;2.78;;
78402;SDS011;67687;43.508;1.504;2023-07-31T13:38:21;5.90;;;3.10;;
78402;SDS011;67687;43.508;1.504;2023-07-31T13:40:48;5.78;;;2.60;;
78402;SDS011;67687;43.508;1.504;2023-07-31T13:43:16;5.93;;;2.87;;
78402;SDS011;67687;43.508;1.504;2023-07-31T13:45:43;6.63;;;2.63;;
78402;SDS011;67687;43.508;1.504;2023-07-31T13:48:09;5.68;;;2.83;;
78402;SDS011;67687;43.508;1.504;2023-07-31T13:50:36;6.05;;;2.65;;
78402;SDS011;67687;43.508;1.504;2023-07-31T13:53:03;5.68;;;2.83;;
78402;SDS011;67687;43.508;1.504;2023-07-31T13:55:30;6.53;;;2.80;;
78402;SDS011;67687;43.508;1.504;2023-07-31T13:57:56;7.00;;;3.00;;
78402;SDS011;67687;43.508;1.504;2023-07-31T14:00:24;5.28;;;2.47;;
78402;SDS011;67687;43.508;1.504;2023-07-31T14:02:52;6.05;;;2.60;;
78402;SDS011;67687;43.508;1.504;2023-07-31T14:05:18;7.28;;;2.78;;
78402;SDS011;67687;43.508;1.504;2023-07-31T14:07:46;4.73;;;2.30;;
78402;SDS011;67687;43.508;1.504;2023-07-31T14:10:12;5.90;;;2.40;;
78402;SDS011;67687;43.508;1.504;2023-07-31T14:12:39;6.55;;;2.45;;
78402;SDS011;67687;43.508;1.504;2023-07-31T14:15:06;5.53;;;2.72;;
78402;SDS011;67687;43.508;1.504;2023-07-31T14:17:34;6.38;;;3.17;;
78402;SDS011;67687;43.508;1.504;2023-07-31T14:20:01;5.80;;;2.87;;
78402;SDS011;67687;43.508;1.504;2023-07-31T14:22:29;7.38;;;2.80;;
78402;SDS011;67687;43.508;1.504;2023-07-31T14:24:56;5.55;;;2.67;;
78402;SDS011;67687;43.508;1.504;2023-07-31T14:27:23;6.78;;;2.58;;
78402;SDS011;67687;43.508;1.504;2023-07-31T14:29:49;6.03;;;2.30;;
78402;SDS011;67687;43.508;1.504;2023-07-31T14:32:16;4.57;;;2.20;;
78402;SDS011;67687;43.508;1.504;2023-07-31T14:34:44;6.07;;;2.30;;
78402;SDS011;67687;43.508;1.504;2023-07-31T14:37:11;5.97;;;2.20;;
78402;SDS011;67687;43.508;1.504;2023-07-31T14:39:37;5.70;;;2.67;;
78402;SDS011;67687;43.508;1.504;2023-07-31T14:42:04;5.57;;;2.63;;
78402;SDS011;67687;43.508;1.504;2023-07-31T14:44:31;5.93;;;2.70;;
78402;SDS011;67687;43.508;1.504;2023-07-31T14:46:58;5.70;;;3.00;;
78402;SDS011;67687;43.508;1.504;2023-07-31T14:49:25;5.20;;;2.58;;